Time;durP1;ratioP1;P1;durP2;ratioP2;P2;SDS_P1;SDS_P2;PMS_P1;PMS_P2;Temp;Humidity;BMP_temperature;BMP_pressure;BME280_temperature;BME280_humidity;BME280_pressure;Samples;Min_cycle;Max_cycle;Signal;HPM_P1;HPM_P2
2023/05/25 00:00:15;;;;;;;38.92;26.55;;;;;;;;;;6262068;22;20016;-82
2023/05/25 00:03:02;;;;;;;35.53;25.58;;;;;;;;;;6284461;22;20015;-83
2023/05/25 00:05:49;;;;;;;32.97;24.88;;;;;;;;;;6284242;22;20008;-83
2023/05/25 00:08:34;;;;;;;36.17;24.90;;;;;;;;;;6284411;22;20015;-83
2023/05/25 00:11:22;;;;;;;32.25;24.77;;;;;;;;;;6284696;22;20015;-84
2023/05/25 00:14:07;;;;;;;29.10;22.67;;;;;;;;;;6261115;22;20012;-83
2023/05/25 00:16:53;;;;;;;28.77;22.67;;;;;;;;;;6282547;22;20019;-82
2023/05/25 00:19:41;;;;;;;24.30;21.25;;;;;;;;;;6283691;22;20012;-83
2023/05/25 00:22:27;;;;;;;26.83;20.98;;;;;;;;;;6282626;22;20023;-82
2023/05/25 00:25:12;;;;;;;26.83;21.08;;;;;;;;;;6282394;22;20023;-84
2023/05/25 00:27:58;;;;;;;23.13;19.77;;;;;;;;;;6283595;22;20019;-85
2023/05/25 00:30:44;;;;;;;26.35;20.15;;;;;;;;;;6260960;22;20004;-84
2023/05/25 00:33:29;;;;;;;25.13;19.27;;;;;;;;;;6261022;22;20016;-82
2023/05/25 00:36:15;;;;;;;24.88;19.65;;;;;;;;;;6282326;22;20023;-81
2023/05/25 00:39:02;;;;;;;24.25;20.00;;;;;;;;;;6261403;22;20333;-83
2023/05/25 00:41:48;;;;;;;23.83;20.17;;;;;;;;;;6282564;22;20024;-82
2023/05/25 00:44:34;;;;;;;29.35;20.30;;;;;;;;;;6285946;22;20012;-83
2023/05/25 00:47:19;;;;;;;24.58;20.45;;;;;;;;;;6284719;22;20020;-82
2023/05/25 00:50:08;;;;;;;27.90;21.75;;;;;;;;;;6262832;22;20016;-82
2023/05/25 00:52:53;;;;;;;27.05;21.13;;;;;;;;;;6263226;22;20015;-83
2023/05/25 00:55:57;;;;;;;27.65;20.98;;;;;;;;;;6284157;22;20011;-80
2023/05/25 00:58:45;;;;;;;26.40;20.58;;;;;;;;;;6284405;22;20020;-82
2023/05/25 01:01:38;;;;;;;24.30;21.38;;;;;;;;;;6284730;22;20015;-81
2023/05/25 01:04:27;;;;;;;27.75;22.38;;;;;;;;;;6263133;22;20023;-83
2023/05/25 01:07:17;;;;;;;29.33;22.95;;;;;;;;;;6284254;22;20332;-82
2023/05/25 01:10:08;;;;;;;21.00;17.55;;;;;;;;;;6262718;22;20011;-82
2023/05/25 01:12:55;;;;;;;114.55;70.03;;;;;;;;;;6284486;22;20413;-82
2023/05/25 01:15:41;;;;;;;54.08;36.60;;;;;;;;;;6262914;22;20011;-83
2023/05/25 01:18:27;;;;;;;78.32;51.88;;;;;;;;;;6262623;22;20011;-84
2023/05/25 01:21:36;;;;;;;156.70;97.85;;;;;;;;;;6264483;22;20011;-83
2023/05/25 01:24:34;;;;;;;60.85;41.40;;;;;;;;;;6262482;22;20013;-84
2023/05/25 01:27:38;;;;;;;34.90;26.60;;;;;;;;;;6262911;22;20015;-83
2023/05/25 01:30:26;;;;;;;26.65;21.52;;;;;;;;;;6262501;22;20336;-82
2023/05/25 01:33:12;;;;;;;26.58;21.52;;;;;;;;;;6262671;22;20011;-83
2023/05/25 01:35:59;;;;;;;26.80;22.60;;;;;;;;;;6262835;22;20020;-83
2023/05/25 01:38:45;;;;;;;27.42;22.33;;;;;;;;;;6283676;22;20015;-82
2023/05/25 01:41:30;;;;;;;31.38;24.92;;;;;;;;;;6262617;22;20324;-83
2023/05/25 01:44:16;;;;;;;30.48;25.77;;;;;;;;;;6262100;22;20019;-83
2023/05/25 01:47:20;;;;;;;28.17;23.58;;;;;;;;;;6262825;22;20015;-83
2023/05/25 01:50:17;;;;;;;31.45;24.10;;;;;;;;;;6284044;22;20015;-83
2023/05/25 01:53:07;;;;;;;30.17;23.20;;;;;;;;;;6261439;22;20011;-83
2023/05/25 01:56:07;;;;;;;27.23;21.75;;;;;;;;;;6261977;22;20023;-82
2023/05/25 01:58:54;;;;;;;29.52;22.48;;;;;;;;;;6262346;22;20012;-85
2023/05/25 02:01:41;;;;;;;31.45;23.30;;;;;;;;;;6262543;22;20007;-84
2023/05/25 02:04:28;;;;;;;33.10;24.70;;;;;;;;;;6262506;22;20015;-84
2023/05/25 02:07:13;;;;;;;32.70;25.23;;;;;;;;;;6261557;22;20016;-84
2023/05/25 02:09:59;;;;;;;30.35;24.05;;;;;;;;;;6263837;22;20012;-85
2023/05/25 02:12:45;;;;;;;31.40;25.05;;;;;;;;;;6261124;22;20020;-84
2023/05/25 02:15:32;;;;;;;34.50;24.90;;;;;;;;;;6262294;22;20336;-84
2023/05/25 02:18:18;;;;;;;33.30;26.38;;;;;;;;;;6263060;22;20015;-84
2023/05/25 02:21:03;;;;;;;27.60;23.50;;;;;;;;;;6261761;22;20419;-84
2023/05/25 02:23:49;;;;;;;28.60;24.58;;;;;;;;;;6262883;22;20016;-84
2023/05/25 02:26:38;;;;;;;27.40;24.40;;;;;;;;;;6261960;22;20016;-84
2023/05/25 02:29:23;;;;;;;29.05;24.70;;;;;;;;;;6283801;22;20020;-86
2023/05/25 02:32:08;;;;;;;29.80;24.13;;;;;;;;;;6262203;22;20008;-84
2023/05/25 02:34:54;;;;;;;31.33;23.05;;;;;;;;;;6261876;22;20324;-83
2023/05/25 02:37:40;;;;;;;29.08;23.15;;;;;;;;;;6262287;22;20321;-83
2023/05/25 02:40:26;;;;;;;27.58;22.25;;;;;;;;;;6261599;22;20015;-83
2023/05/25 02:43:12;;;;;;;31.25;23.42;;;;;;;;;;6263557;22;20409;-85
2023/05/25 02:45:58;;;;;;;25.85;21.63;;;;;;;;;;6263643;22;20016;-85
2023/05/25 02:48:45;;;;;;;29.92;22.88;;;;;;;;;;6263298;22;20015;-84
2023/05/25 02:51:31;;;;;;;28.30;22.92;;;;;;;;;;6263694;22;20011;-84
2023/05/25 02:54:17;;;;;;;28.75;23.05;;;;;;;;;;6263234;22;20015;-84
2023/05/25 02:57:04;;;;;;;26.80;21.63;;;;;;;;;;6263403;22;20011;-84
2023/05/25 02:59:49;;;;;;;29.67;21.48;;;;;;;;;;6285098;22;20015;-84
2023/05/25 03:02:35;;;;;;;25.63;21.55;;;;;;;;;;6263419;22;20015;-83
2023/05/25 03:05:20;;;;;;;28.02;21.38;;;;;;;;;;6269465;22;20015;-84
2023/05/25 03:08:06;;;;;;;26.42;22.30;;;;;;;;;;6269196;22;20019;-84
2023/05/25 03:10:52;;;;;;;27.42;21.38;;;;;;;;;;6269088;22;20011;-83
2023/05/25 03:13:37;;;;;;;26.30;21.83;;;;;;;;;;6268893;22;20008;-83
2023/05/25 03:16:24;;;;;;;26.05;21.48;;;;;;;;;;6268780;22;20019;-83
2023/05/25 03:19:10;;;;;;;27.17;22.13;;;;;;;;;;6290348;22;20020;-84
2023/05/25 03:21:56;;;;;;;27.13;22.85;;;;;;;;;;6289887;22;20004;-84
2023/05/25 03:24:43;;;;;;;26.25;21.50;;;;;;;;;;6264567;22;20012;-85
2023/05/25 03:27:29;;;;;;;29.45;21.90;;;;;;;;;;6263414;22;20015;-83
2023/05/25 03:30:15;;;;;;;27.25;22.10;;;;;;;;;;6262974;22;20432;-83
2023/05/25 03:33:00;;;;;;;25.80;21.10;;;;;;;;;;6263019;22;20011;-85
2023/05/25 03:35:51;;;;;;;24.35;20.60;;;;;;;;;;6264297;22;20016;-86
2023/05/25 03:38:37;;;;;;;22.15;19.33;;;;;;;;;;6263286;22;20016;-85
2023/05/25 03:41:23;;;;;;;22.95;19.23;;;;;;;;;;6263169;22;20012;-84
2023/05/25 03:44:09;;;;;;;22.98;19.23;;;;;;;;;;6262764;22;20019;-86
2023/05/25 03:46:55;;;;;;;22.88;19.27;;;;;;;;;;6262965;22;20015;-85
2023/05/25 03:49:42;;;;;;;25.63;19.40;;;;;;;;;;6263454;22;20011;-84
2023/05/25 03:52:28;;;;;;;26.58;19.40;;;;;;;;;;6263113;22;20007;-85
2023/05/25 03:55:16;;;;;;;24.48;19.95;;;;;;;;;;6262867;22;20027;-84
2023/05/25 03:58:00;;;;;;;25.33;19.02;;;;;;;;;;6262434;22;20356;-86
2023/05/25 04:00:47;;;;;;;27.70;19.77;;;;;;;;;;6262770;22;20027;-86
2023/05/25 04:03:33;;;;;;;25.27;20.38;;;;;;;;;;6262926;22;20008;-83
2023/05/25 04:06:18;;;;;;;27.95;19.77;;;;;;;;;;6262561;22;20017;-83
2023/05/25 04:09:03;;;;;;;21.75;19.40;;;;;;;;;;6262825;22;20007;-85
2023/05/25 04:11:52;;;;;;;26.90;20.85;;;;;;;;;;6262942;22;20008;-85
2023/05/25 04:14:37;;;;;;;23.52;19.88;;;;;;;;;;6263496;22;20015;-86
2023/05/25 04:17:24;;;;;;;24.30;19.08;;;;;;;;;;6262753;22;20019;-85
2023/05/25 04:20:09;;;;;;;22.33;18.38;;;;;;;;;;6262629;22;20434;-86
2023/05/25 04:22:55;;;;;;;26.08;19.83;;;;;;;;;;6262735;22;20015;-86
2023/05/25 04:25:41;;;;;;;23.00;19.52;;;;;;;;;;6283625;22;20015;-83
2023/05/25 04:28:27;;;;;;;21.25;18.63;;;;;;;;;;6262702;22;20024;-85
2023/05/25 04:31:27;;;;;;;20.60;18.17;;;;;;;;;;6265727;22;20012;-85
2023/05/25 04:34:28;;;;;;;22.10;18.55;;;;;;;;;;6285584;22;20012;-84
2023/05/25 04:37:26;;;;;;;22.10;18.10;;;;;;;;;;6264232;22;20328;-86
2023/05/25 04:40:13;;;;;;;19.77;17.30;;;;;;;;;;6262476;22;20016;-85
2023/05/25 04:43:00;;;;;;;22.17;18.67;;;;;;;;;;6262923;22;20012;-86
2023/05/25 04:45:47;;;;;;;24.38;19.08;;;;;;;;;;6284165;22;20015;-84
2023/05/25 04:48:33;;;;;;;23.60;18.73;;;;;;;;;;6262576;22;20015;-84
2023/05/25 04:51:19;;;;;;;27.90;20.73;;;;;;;;;;6262632;22;20328;-84
2023/05/25 04:54:04;;;;;;;26.95;20.52;;;;;;;;;;6262236;22;20015;-84
2023/05/25 04:56:50;;;;;;;20.92;17.45;;;;;;;;;;6261821;22;20019;-85
2023/05/25 04:59:38;;;;;;;21.45;18.50;;;;;;;;;;6284140;22;20016;-82
2023/05/25 05:02:24;;;;;;;20.80;18.00;;;;;;;;;;6262330;22;20425;-83
2023/05/25 05:05:09;;;;;;;19.65;17.02;;;;;;;;;;6283986;22;20016;-83
2023/05/25 05:07:54;;;;;;;20.88;17.50;;;;;;;;;;6283646;22;20325;-85
2023/05/25 05:10:40;;;;;;;21.58;17.95;;;;;;;;;;6284044;22;20015;-84
2023/05/25 05:13:25;;;;;;;20.92;17.63;;;;;;;;;;6283886;22;20020;-84
2023/05/25 05:16:12;;;;;;;25.52;17.63;;;;;;;;;;6262107;22;20020;-85
2023/05/25 05:18:57;;;;;;;22.30;17.63;;;;;;;;;;6262514;22;20433;-85
2023/05/25 05:21:43;;;;;;;23.10;17.27;;;;;;;;;;6283715;22;20007;-84
2023/05/25 05:24:29;;;;;;;25.27;17.58;;;;;;;;;;6262543;22;20007;-84
2023/05/25 05:27:15;;;;;;;25.35;17.00;;;;;;;;;;6262320;22;20429;-83
2023/05/25 05:30:05;;;;;;;19.15;16.27;;;;;;;;;;6264889;22;20011;-84
2023/05/25 05:32:50;;;;;;;18.90;16.90;;;;;;;;;;6264273;22;20019;-84
2023/05/25 05:35:38;;;;;;;19.52;16.95;;;;;;;;;;6285559;22;20016;-84
2023/05/25 05:38:31;;;;;;;20.60;15.93;;;;;;;;;;6265548;22;20421;-84
2023/05/25 05:41:16;;;;;;;20.50;15.85;;;;;;;;;;6264341;22;20019;-84
2023/05/25 05:44:07;;;;;;;21.77;15.98;;;;;;;;;;6264974;22;20015;-83
2023/05/25 05:46:58;;;;;;;21.05;13.43;;;;;;;;;;6264305;22;20023;-83
2023/05/25 05:49:44;;;;;;;19.48;13.00;;;;;;;;;;6285357;22;20016;-85
2023/05/25 05:52:29;;;;;;;14.85;11.45;;;;;;;;;;6261828;22;20011;-84
2023/05/25 05:55:15;;;;;;;18.58;13.50;;;;;;;;;;6284915;22;20011;-83
2023/05/25 05:58:01;;;;;;;19.48;13.73;;;;;;;;;;6261972;22;20015;-84
2023/05/25 06:00:47;;;;;;;19.55;13.45;;;;;;;;;;6283197;22;20367;-84
2023/05/25 06:03:33;;;;;;;18.77;13.95;;;;;;;;;;6261609;22;20016;-84
2023/05/25 06:06:19;;;;;;;21.83;14.30;;;;;;;;;;6262296;22;20012;-85
2023/05/25 06:09:05;;;;;;;17.70;15.07;;;;;;;;;;6261566;22;20016;-84
2023/05/25 06:11:51;;;;;;;19.63;13.55;;;;;;;;;;6282729;22;20420;-82
2023/05/25 06:14:37;;;;;;;20.15;13.35;;;;;;;;;;6282697;22;20012;-82
2023/05/25 06:17:24;;;;;;;17.10;13.80;;;;;;;;;;6282707;22;20011;-83
2023/05/25 06:20:13;;;;;;;20.67;13.07;;;;;;;;;;6260528;22;20020;-83
2023/05/25 06:23:00;;;;;;;24.80;14.52;;;;;;;;;;6280920;22;20020;-84
2023/05/25 06:25:47;;;;;;;18.00;14.50;;;;;;;;;;6281552;22;20428;-82
2023/05/25 06:28:32;;;;;;;16.33;14.05;;;;;;;;;;6281368;22;20011;-83
2023/05/25 06:31:18;;;;;;;22.98;14.05;;;;;;;;;;6280591;22;20011;-83
2023/05/25 06:34:03;;;;;;;16.95;13.18;;;;;;;;;;6282944;22;20011;-83
2023/05/25 06:36:50;;;;;;;21.30;14.50;;;;;;;;;;6283278;22;20011;-81
2023/05/25 06:39:37;;;;;;;17.42;14.15;;;;;;;;;;6284444;22;20020;-83
2023/05/25 06:42:23;;;;;;;18.67;13.90;;;;;;;;;;6283515;22;20020;-82
2023/05/25 06:45:14;;;;;;;22.30;16.67;;;;;;;;;;6263095;22;20338;-84
2023/05/25 06:48:01;;;;;;;32.33;17.55;;;;;;;;;;6284219;22;20011;-83
2023/05/25 06:50:47;;;;;;;19.10;12.85;;;;;;;;;;6283963;22;20012;-82
2023/05/25 06:53:32;;;;;;;17.00;12.95;;;;;;;;;;6284014;22;20011;-83
2023/05/25 06:56:18;;;;;;;21.10;15.23;;;;;;;;;;6284609;22;20011;-83
2023/05/25 06:59:03;;;;;;;28.73;15.55;;;;;;;;;;6283054;22;20016;-83
2023/05/25 07:01:49;;;;;;;15.18;12.00;;;;;;;;;;6284583;22;20355;-85
2023/05/25 07:04:35;;;;;;;22.88;15.10;;;;;;;;;;6262527;22;20016;-83
2023/05/25 07:07:21;;;;;;;22.73;11.82;;;;;;;;;;6284456;22;20016;-84
2023/05/25 07:10:06;;;;;;;19.13;14.40;;;;;;;;;;6284512;22;20016;-84
2023/05/25 07:12:51;;;;;;;24.90;17.60;;;;;;;;;;6283870;22;20417;-82
2023/05/25 07:15:37;;;;;;;12.55;10.38;;;;;;;;;;6285157;22;20016;-83
2023/05/25 07:18:22;;;;;;;13.95;11.13;;;;;;;;;;6261556;22;20016;-84
2023/05/25 07:21:08;;;;;;;16.33;12.10;;;;;;;;;;6283031;22;20019;-82
2023/05/25 07:23:54;;;;;;;15.40;11.57;;;;;;;;;;6284417;22;20019;-82
2023/05/25 07:26:39;;;;;;;14.65;10.80;;;;;;;;;;6261564;22;20015;-83
2023/05/25 07:29:25;;;;;;;13.95;11.40;;;;;;;;;;6284040;22;20012;-82
2023/05/25 07:32:11;;;;;;;13.23;10.82;;;;;;;;;;6282670;22;20016;-84
2023/05/25 07:34:56;;;;;;;12.38;9.32;;;;;;;;;;6282441;22;20023;-83
2023/05/25 07:37:41;;;;;;;15.05;10.45;;;;;;;;;;6282967;22;20015;-83
2023/05/25 07:40:27;;;;;;;13.15;10.30;;;;;;;;;;6284170;22;20340;-83
2023/05/25 07:43:12;;;;;;;14.85;9.32;;;;;;;;;;6283959;22;20328;-84
2023/05/25 07:45:59;;;;;;;12.57;8.85;;;;;;;;;;6284361;22;20016;-83
2023/05/25 07:48:45;;;;;;;11.00;8.93;;;;;;;;;;6284266;22;20019;-83
2023/05/25 07:51:31;;;;;;;11.48;8.25;;;;;;;;;;6262713;22;20011;-83
2023/05/25 07:54:16;;;;;;;12.52;8.63;;;;;;;;;;6285480;22;20019;-83
2023/05/25 07:57:02;;;;;;;14.25;9.30;;;;;;;;;;6285491;22;20015;-84
2023/05/25 07:59:47;;;;;;;10.95;8.85;;;;;;;;;;6284433;22;20011;-84
2023/05/25 08:02:33;;;;;;;8.60;5.85;;;;;;;;;;6285367;22;20016;-84
2023/05/25 08:05:18;;;;;;;10.65;8.18;;;;;;;;;;6285552;22;20016;-84
2023/05/25 08:08:04;;;;;;;11.02;9.48;;;;;;;;;;6284162;22;20020;-84
2023/05/25 08:10:49;;;;;;;10.02;8.98;;;;;;;;;;6262328;22;20012;-85
2023/05/25 08:13:36;;;;;;;12.73;9.55;;;;;;;;;;6262269;22;20028;-85
2023/05/25 08:16:21;;;;;;;11.45;9.30;;;;;;;;;;6285134;22;20015;-83
2023/05/25 08:19:06;;;;;;;11.93;9.27;;;;;;;;;;6262515;22;20020;-84
2023/05/25 08:21:52;;;;;;;9.90;8.60;;;;;;;;;;6283821;22;20011;-84
2023/05/25 08:24:37;;;;;;;11.55;7.70;;;;;;;;;;6280583;22;20008;-84
2023/05/25 08:27:23;;;;;;;9.15;8.05;;;;;;;;;;6284033;22;20028;-84
2023/05/25 08:30:08;;;;;;;13.93;8.30;;;;;;;;;;6262167;22;20012;-84
2023/05/25 08:32:53;;;;;;;9.13;8.02;;;;;;;;;;6284018;22;20016;-85
2023/05/25 08:35:41;;;;;;;8.82;7.80;;;;;;;;;;6262602;22;20019;-84
2023/05/25 08:38:26;;;;;;;10.38;7.85;;;;;;;;;;6262125;22;20016;-84
2023/05/25 08:41:12;;;;;;;9.68;7.68;;;;;;;;;;6283994;22;20437;-83
2023/05/25 08:44:04;;;;;;;9.65;6.68;;;;;;;;;;6283699;22;20012;-84
2023/05/25 08:46:51;;;;;;;8.00;6.28;;;;;;;;;;6262664;22;20012;-84
2023/05/25 08:49:38;;;;;;;9.20;7.85;;;;;;;;;;6262677;22;20023;-85
2023/05/25 08:52:28;;;;;;;10.52;7.30;;;;;;;;;;6262136;22;20011;-83
2023/05/25 08:55:15;;;;;;;8.40;5.75;;;;;;;;;;6262346;22;20016;-83
2023/05/25 08:58:25;;;;;;;12.40;7.45;;;;;;;;;;6262002;22;20421;-84
2023/05/25 09:01:14;;;;;;;9.55;6.85;;;;;;;;;;6262328;22;20012;-82
2023/05/25 09:04:00;;;;;;;10.25;7.50;;;;;;;;;;6285756;22;20320;-83
2023/05/25 09:06:47;;;;;;;10.55;6.35;;;;;;;;;;6264409;22;20016;-83
2023/05/25 09:09:35;;;;;;;16.50;7.30;;;;;;;;;;6264222;22;20019;-83
2023/05/25 09:12:23;;;;;;;8.93;7.03;;;;;;;;;;6264165;22;20031;-84
2023/05/25 09:15:10;;;;;;;12.15;7.43;;;;;;;;;;6264557;22;20020;-84
2023/05/25 09:17:55;;;;;;;8.10;6.20;;;;;;;;;;6264389;22;20015;-85
2023/05/25 09:20:40;;;;;;;8.85;7.30;;;;;;;;;;6285323;22;20016;-84
2023/05/25 09:23:26;;;;;;;10.90;8.50;;;;;;;;;;6264429;22;20428;-85
2023/05/25 09:26:12;;;;;;;11.32;7.22;;;;;;;;;;6263603;22;20401;-84
2023/05/25 09:28:57;;;;;;;9.48;6.80;;;;;;;;;;6263824;22;20019;-84
2023/05/25 09:31:43;;;;;;;9.50;7.93;;;;;;;;;;6264550;22;20027;-84
2023/05/25 09:34:34;;;;;;;8.98;7.15;;;;;;;;;;6263709;22;20012;-85
2023/05/25 09:37:20;;;;;;;10.70;6.25;;;;;;;;;;6264235;22;20367;-84
2023/05/25 09:40:07;;;;;;;11.95;7.13;;;;;;;;;;6263801;22;20016;-84
2023/05/25 09:42:53;;;;;;;11.55;6.30;;;;;;;;;;6264181;22;20007;-84
2023/05/25 09:45:38;;;;;;;9.73;5.50;;;;;;;;;;6264046;22;20011;-83
2023/05/25 09:48:25;;;;;;;9.07;6.30;;;;;;;;;;6263987;22;20016;-84
2023/05/25 09:51:10;;;;;;;6.75;5.78;;;;;;;;;;6264193;22;20015;-84
2023/05/25 09:53:56;;;;;;;6.38;5.00;;;;;;;;;;6263447;22;20015;-84
2023/05/25 09:56:43;;;;;;;7.63;5.22;;;;;;;;;;6263832;22;20015;-85
2023/05/25 09:59:28;;;;;;;8.82;5.50;;;;;;;;;;6264162;22;20016;-85
2023/05/25 10:02:14;;;;;;;6.57;4.90;;;;;;;;;;6263635;22;20015;-85
2023/05/25 10:05:01;;;;;;;9.63;5.35;;;;;;;;;;6263965;22;20008;-85
2023/05/25 10:07:49;;;;;;;7.50;5.03;;;;;;;;;;6285490;22;20016;-84
2023/05/25 10:10:35;;;;;;;8.40;4.70;;;;;;;;;;6284219;22;20336;-85
2023/05/25 10:13:24;;;;;;;8.38;4.72;;;;;;;;;;6262204;22;20015;-85
2023/05/25 10:16:16;;;;;;;4.97;4.40;;;;;;;;;;6261978;22;20324;-85
2023/05/25 10:19:25;;;;;;;10.13;5.07;;;;;;;;;;6262315;22;20016;-84
2023/05/25 10:22:24;;;;;;;9.98;5.13;;;;;;;;;;6261188;22;20016;-84
2023/05/25 10:25:30;;;;;;;10.27;5.60;;;;;;;;;;6262192;22;20016;-83
2023/05/25 10:28:30;;;;;;;8.05;6.13;;;;;;;;;;6263842;22;20015;-83
2023/05/25 10:31:16;;;;;;;7.03;5.57;;;;;;;;;;6262214;22;20436;-83
2023/05/25 10:34:02;;;;;;;8.07;5.88;;;;;;;;;;6261699;22;20020;-84
2023/05/25 10:36:47;;;;;;;8.10;6.32;;;;;;;;;;6261565;22;20019;-84
2023/05/25 10:39:35;;;;;;;13.60;9.55;;;;;;;;;;6262294;22;20020;-84
2023/05/25 10:42:21;;;;;;;15.75;11.27;;;;;;;;;;6263752;22;20336;-84
2023/05/25 10:45:08;;;;;;;7.32;6.50;;;;;;;;;;6283067;22;20012;-84
2023/05/25 10:47:53;;;;;;;6.68;6.05;;;;;;;;;;6283207;22;20388;-83
2023/05/25 10:50:38;;;;;;;10.00;6.50;;;;;;;;;;6283147;22;20011;-83
2023/05/25 10:53:24;;;;;;;8.80;6.43;;;;;;;;;;6283388;22;20016;-82
2023/05/25 10:56:11;;;;;;;10.07;6.50;;;;;;;;;;6283311;22;20428;-83
2023/05/25 10:58:57;;;;;;;7.22;6.07;;;;;;;;;;6261467;22;20425;-85
2023/05/25 11:01:51;;;;;;;7.65;5.80;;;;;;;;;;6261505;22;20011;-85
2023/05/25 11:04:36;;;;;;;7.93;6.30;;;;;;;;;;6261566;22;20325;-83
2023/05/25 11:07:22;;;;;;;9.23;6.30;;;;;;;;;;6284963;22;20008;-82
2023/05/25 11:10:07;;;;;;;7.00;5.68;;;;;;;;;;6263492;22;20024;-83
2023/05/25 11:12:53;;;;;;;8.80;6.28;;;;;;;;;;6262470;22;20012;-83
2023/05/25 11:15:39;;;;;;;9.15;6.57;;;;;;;;;;6263179;22;20015;-83
2023/05/25 11:18:36;;;;;;;9.77;6.18;;;;;;;;;;6263071;22;20027;-83
2023/05/25 11:21:25;;;;;;;11.55;6.30;;;;;;;;;;6284741;22;20015;-83
2023/05/25 11:24:13;;;;;;;7.82;6.38;;;;;;;;;;6284268;22;20324;-83
2023/05/25 11:27:04;;;;;;;8.02;4.55;;;;;;;;;;6276125;22;20012;-83
2023/05/25 11:29:51;;;;;;;9.23;5.43;;;;;;;;;;6284630;22;20016;-83
2023/05/25 11:32:38;;;;;;;13.40;5.78;;;;;;;;;;6284237;22;20015;-83
2023/05/25 11:35:25;;;;;;;8.43;5.60;;;;;;;;;;6263159;22;20015;-83
2023/05/25 11:38:11;;;;;;;7.53;5.30;;;;;;;;;;6263102;22;20064;-83
2023/05/25 11:40:56;;;;;;;7.07;4.93;;;;;;;;;;6262686;22;20320;-83
2023/05/25 11:43:42;;;;;;;7.97;5.75;;;;;;;;;;6284481;22;20326;-83
2023/05/25 11:46:27;;;;;;;9.52;4.60;;;;;;;;;;6284024;22;20432;-84
2023/05/25 11:49:13;;;;;;;7.07;4.47;;;;;;;;;;6262910;22;20336;-83
2023/05/25 11:52:04;;;;;;;5.38;4.10;;;;;;;;;;6263293;22;20324;-83
2023/05/25 11:54:49;;;;;;;5.80;4.43;;;;;;;;;;6262514;22;20424;-83
2023/05/25 11:57:34;;;;;;;6.85;4.55;;;;;;;;;;6262821;22;20015;-82
2023/05/25 12:00:25;;;;;;;10.15;5.00;;;;;;;;;;6262323;22;20020;-85
2023/05/25 12:03:28;;;;;;;7.18;5.22;;;;;;;;;;6263009;22;20008;-84
2023/05/25 12:06:25;;;;;;;5.57;4.45;;;;;;;;;;6262978;22;20016;-85
2023/05/25 12:09:11;;;;;;;8.25;4.88;;;;;;;;;;6284083;22;20016;-84
2023/05/25 12:11:57;;;;;;;6.18;5.00;;;;;;;;;;6284322;22;20015;-84
2023/05/25 12:14:49;;;;;;;13.15;5.18;;;;;;;;;;6262122;22;20016;-87
2023/05/25 12:17:35;;;;;;;8.27;4.68;;;;;;;;;;6262674;22;20012;-86
2023/05/25 12:20:23;;;;;;;7.15;4.95;;;;;;;;;;6262954;22;20016;-87
2023/05/25 12:23:14;;;;;;;10.73;5.38;;;;;;;;;;6263785;22;20008;-87
2023/05/25 12:26:10;;;;;;;7.30;4.80;;;;;;;;;;6262483;22;20020;-84
2023/05/25 12:29:08;;;;;;;7.63;5.30;;;;;;;;;;6262280;22;20011;-88
2023/05/25 12:32:04;;;;;;;10.02;6.25;;;;;;;;;;6262892;22;20328;-87
2023/05/25 12:34:49;;;;;;;10.00;5.80;;;;;;;;;;6262683;22;20416;-86
2023/05/25 12:37:35;;;;;;;12.15;7.25;;;;;;;;;;6262352;22;20011;-87
2023/05/25 12:40:23;;;;;;;8.88;4.10;;;;;;;;;;6262769;22;20020;-88
2023/05/25 12:43:10;;;;;;;5.75;4.35;;;;;;;;;;6262360;22;20326;-89
2023/05/25 12:45:55;;;;;;;7.05;4.88;;;;;;;;;;6262556;22;20015;-87
2023/05/25 12:48:41;;;;;;;14.90;4.85;;;;;;;;;;6262588;22;20011;-87
2023/05/25 12:51:40;;;;;;;7.80;4.75;;;;;;;;;;6262312;22;20336;-86
2023/05/25 12:54:42;;;;;;;5.18;4.20;;;;;;;;;;6284017;22;20007;-87
2023/05/25 12:57:34;;;;;;;8.35;4.60;;;;;;;;;;6283829;22;20409;-88
2023/05/25 13:00:22;;;;;;;5.38;4.60;;;;;;;;;;6262607;22;20329;-87
2023/05/25 13:03:08;;;;;;;7.85;4.95;;;;;;;;;;6262008;22;20015;-85
2023/05/25 13:06:02;;;;;;;6.90;4.32;;;;;;;;;;6262657;22;20328;-85
2023/05/25 13:08:47;;;;;;;7.28;4.70;;;;;;;;;;6262602;22;20020;-85
2023/05/25 13:11:32;;;;;;;5.97;4.93;;;;;;;;;;6262117;22;20015;-86
2023/05/25 13:14:18;;;;;;;13.15;8.38;;;;;;;;;;6262198;22;20019;-84
2023/05/25 13:17:04;;;;;;;13.23;7.03;;;;;;;;;;6262191;22;20012;-84
2023/05/25 13:19:49;;;;;;;7.40;5.22;;;;;;;;;;6262339;22;20011;-87
2023/05/25 13:22:35;;;;;;;5.43;4.40;;;;;;;;;;6262161;22;20012;-85
2023/05/25 13:25:21;;;;;;;5.57;4.40;;;;;;;;;;6261663;22;20012;-84
2023/05/25 13:28:06;;;;;;;6.75;4.10;;;;;;;;;;6283723;22;20020;-84
2023/05/25 13:30:51;;;;;;;6.50;3.85;;;;;;;;;;6283874;22;20016;-85
2023/05/25 13:33:37;;;;;;;6.10;4.20;;;;;;;;;;6283830;22;20016;-84
2023/05/25 13:36:22;;;;;;;5.38;3.80;;;;;;;;;;6262439;22;20016;-83
2023/05/25 13:39:12;;;;;;;6.72;4.75;;;;;;;;;;6261802;22;20019;-84
2023/05/25 13:41:57;;;;;;;14.25;5.53;;;;;;;;;;6262050;22;20016;-84
2023/05/25 13:44:42;;;;;;;10.55;5.18;;;;;;;;;;6283620;22;20428;-88
2023/05/25 13:47:28;;;;;;;6.60;5.10;;;;;;;;;;6262278;22;20019;-85
2023/05/25 13:50:14;;;;;;;8.63;4.45;;;;;;;;;;6263347;22;20016;-87
2023/05/25 13:52:59;;;;;;;9.73;3.05;;;;;;;;;;6263374;22;20020;-86
2023/05/25 13:55:46;;;;;;;4.57;3.42;;;;;;;;;;6285538;22;20008;-85
2023/05/25 13:58:32;;;;;;;4.82;3.38;;;;;;;;;;6263941;22;20020;-84
2023/05/25 14:01:17;;;;;;;4.70;2.90;;;;;;;;;;6263838;22;20011;-83
2023/05/25 14:04:03;;;;;;;3.95;2.35;;;;;;;;;;6286410;22;20012;-85
2023/05/25 14:06:48;;;;;;;4.63;2.50;;;;;;;;;;6263412;22;20016;-84
2023/05/25 14:09:34;;;;;;;5.75;3.08;;;;;;;;;;6264004;22;20012;-85
2023/05/25 14:12:19;;;;;;;3.80;2.95;;;;;;;;;;6263088;22;20424;-84
2023/05/25 14:15:06;;;;;;;2.70;2.17;;;;;;;;;;6284965;22;20015;-86
2023/05/25 14:17:51;;;;;;;3.85;2.60;;;;;;;;;;6263329;22;20016;-84
2023/05/25 14:20:39;;;;;;;4.22;2.75;;;;;;;;;;6263462;22;20429;-84
2023/05/25 14:23:25;;;;;;;3.58;2.90;;;;;;;;;;6261472;22;20017;-84
2023/05/25 14:26:11;;;;;;;3.83;2.80;;;;;;;;;;6262245;22;20019;-84
2023/05/25 14:28:57;;;;;;;3.58;2.80;;;;;;;;;;6282236;22;20360;-83
2023/05/25 14:31:47;;;;;;;2.97;2.55;;;;;;;;;;6263557;22;20015;-87
2023/05/25 14:34:33;;;;;;;3.33;2.80;;;;;;;;;;6261438;22;20015;-84
2023/05/25 14:37:18;;;;;;;4.05;2.47;;;;;;;;;;6262743;22;20016;-84
2023/05/25 14:40:05;;;;;;;3.38;2.80;;;;;;;;;;6263547;22;20018;-84
2023/05/25 14:42:54;;;;;;;4.15;2.58;;;;;;;;;;6284273;22;20015;-83
2023/05/25 14:45:40;;;;;;;3.50;2.63;;;;;;;;;;6263445;22;20011;-86
2023/05/25 14:48:25;;;;;;;3.92;1.73;;;;;;;;;;6262889;22;20436;-85
2023/05/25 14:51:11;;;;;;;2.95;2.50;;;;;;;;;;6260672;22;20015;-85
2023/05/25 14:53:59;;;;;;;3.25;2.30;;;;;;;;;;6261118;22;20016;-85
2023/05/25 14:56:46;;;;;;;2.10;1.90;;;;;;;;;;6260855;22;20015;-84
2023/05/25 14:59:32;;;;;;;3.40;2.60;;;;;;;;;;6261265;22;20016;-84
2023/05/25 15:02:17;;;;;;;4.03;2.67;;;;;;;;;;6260797;22;20015;-83
2023/05/25 15:05:03;;;;;;;10.55;5.82;;;;;;;;;;6260092;22;20012;-83
2023/05/25 15:07:49;;;;;;;5.53;3.28;;;;;;;;;;6261638;22;20012;-84
2023/05/25 15:10:35;;;;;;;6.60;4.10;;;;;;;;;;6261738;22;20445;-83
2023/05/25 15:13:24;;;;;;;5.75;3.03;;;;;;;;;;6263924;22;20332;-83
2023/05/25 15:16:18;;;;;;;4.82;2.60;;;;;;;;;;6282839;22;20332;-83
2023/05/25 15:19:03;;;;;;;3.15;2.40;;;;;;;;;;6261443;22;20015;-83
2023/05/25 15:21:49;;;;;;;5.63;3.25;;;;;;;;;;6283031;22;20436;-83
2023/05/25 15:24:34;;;;;;;5.55;3.00;;;;;;;;;;6260895;22;20008;-82
2023/05/25 15:27:20;;;;;;;5.35;3.22;;;;;;;;;;6261819;22;20015;-83
2023/05/25 15:30:06;;;;;;;7.25;3.58;;;;;;;;;;6260981;22;20419;-84
2023/05/25 15:32:52;;;;;;;4.68;3.45;;;;;;;;;;6261209;22;20012;-83
2023/05/25 15:35:37;;;;;;;8.60;5.28;;;;;;;;;;6282723;22;20012;-83
2023/05/25 15:38:22;;;;;;;8.00;5.82;;;;;;;;;;6261594;22;20354;-84
2023/05/25 15:41:08;;;;;;;8.90;6.30;;;;;;;;;;6266716;22;20008;-85
2023/05/25 15:43:56;;;;;;;6.00;4.80;;;;;;;;;;6268104;22;20008;-84
2023/05/25 15:46:42;;;;;;;5.15;4.15;;;;;;;;;;6268485;22;20015;-85
2023/05/25 15:49:27;;;;;;;7.10;4.32;;;;;;;;;;6268450;22;20416;-83
2023/05/25 15:52:13;;;;;;;5.38;4.03;;;;;;;;;;6266283;22;20432;-83
2023/05/25 15:54:59;;;;;;;4.55;3.90;;;;;;;;;;6290410;22;20016;-86
2023/05/25 15:57:44;;;;;;;5.30;4.03;;;;;;;;;;6290158;22;20448;-83
2023/05/25 16:00:31;;;;;;;3.90;3.50;;;;;;;;;;6265482;22;20012;-84
2023/05/25 16:03:17;;;;;;;5.95;3.92;;;;;;;;;;6261909;22;20012;-83
2023/05/25 16:06:02;;;;;;;5.53;4.32;;;;;;;;;;6287416;22;20007;-82
2023/05/25 16:08:48;;;;;;;12.35;7.70;;;;;;;;;;6265379;22;20011;-84
2023/05/25 16:11:34;;;;;;;10.70;6.38;;;;;;;;;;6262922;22;20011;-82
2023/05/25 16:14:19;;;;;;;14.60;8.50;;;;;;;;;;6263043;22;20049;-84
2023/05/25 16:17:05;;;;;;;8.88;6.55;;;;;;;;;;6284463;22;20011;-83
2023/05/25 16:19:50;;;;;;;9.43;6.75;;;;;;;;;;6262418;22;20011;-84
2023/05/25 16:22:35;;;;;;;13.05;7.97;;;;;;;;;;6261406;22;20019;-83
2023/05/25 16:25:20;;;;;;;17.33;8.00;;;;;;;;;;6264150;22;20012;-83